createdAt,value
2024-04-30T00:00:20.935Z,13.77
2024-04-30T00:02:22.747Z,13.73
2024-04-30T00:04:25.330Z,13.73
2024-04-30T00:06:27.188Z,13.74
2024-04-30T00:08:28.899Z,13.72
2024-04-30T00:10:30.907Z,13.74
2024-04-30T00:12:32.900Z,13.70
2024-04-30T00:14:34.757Z,13.68
2024-04-30T00:16:46.331Z,13.64
2024-04-30T00:18:48.260Z,13.68
2024-04-30T00:20:50.080Z,13.59
2024-04-30T00:22:51.853Z,13.58
2024-04-30T00:24:53.798Z,13.54
2024-04-30T00:26:55.621Z,13.52
2024-04-30T00:28:57.487Z,13.53
2024-04-30T00:30:59.370Z,13.55
2024-04-30T00:33:01.206Z,13.53
2024-04-30T00:35:02.987Z,13.45
2024-04-30T00:37:04.788Z,13.41
2024-04-30T00:39:06.705Z,13.44
2024-04-30T00:41:08.447Z,13.28
2024-04-30T00:43:10.192Z,13.33
2024-04-30T00:45:12.062Z,13.42
2024-04-30T00:47:14.734Z,13.44
2024-04-30T00:49:16.593Z,13.36
2024-04-30T00:51:18.438Z,13.36
2024-04-30T00:53:20.859Z,13.34
2024-04-30T00:55:22.694Z,13.30
2024-04-30T00:57:24.765Z,13.33
2024-04-30T00:59:26.566Z,13.28
2024-04-30T01:01:28.458Z,13.23
2024-04-30T01:03:30.346Z,13.27
2024-04-30T01:05:32.234Z,13.23
2024-04-30T01:07:34.393Z,13.20
2024-04-30T01:09:36.160Z,13.24
2024-04-30T01:11:38.035Z,13.27
2024-04-30T01:13:39.948Z,13.32
2024-04-30T01:15:41.722Z,13.27
2024-04-30T01:17:43.640Z,13.36
2024-04-30T01:19:45.592Z,13.33
2024-04-30T01:21:47.411Z,13.40
2024-04-30T01:23:49.148Z,13.37
2024-04-30T01:25:50.844Z,13.37
2024-04-30T01:27:52.676Z,13.30
2024-04-30T01:29:54.430Z,13.33
2024-04-30T01:31:56.498Z,13.34
2024-04-30T01:33:58.300Z,13.36
2024-04-30T01:36:00.103Z,13.40
2024-04-30T01:38:02.036Z,13.42
2024-04-30T01:40:04.085Z,13.34
2024-04-30T01:42:06.535Z,13.40
2024-04-30T01:44:08.259Z,13.40
2024-04-30T01:46:10.046Z,13.36
2024-04-30T01:48:12.002Z,13.31
2024-04-30T01:50:13.953Z,13.26
2024-04-30T01:52:15.818Z,13.29
2024-04-30T01:54:17.531Z,13.34
2024-04-30T01:56:19.302Z,13.22
2024-04-30T01:58:21.071Z,13.19
2024-04-30T02:00:22.805Z,13.18
2024-04-30T02:02:24.605Z,13.21
2024-04-30T02:04:27.382Z,13.20
2024-04-30T02:06:30.568Z,13.26
2024-04-30T02:08:32.442Z,13.23
2024-04-30T02:10:34.253Z,13.28
2024-04-30T02:12:36.023Z,13.32
2024-04-30T02:14:37.765Z,13.24
2024-04-30T02:16:39.879Z,13.14
2024-04-30T02:18:41.712Z,13.20
2024-04-30T02:20:43.469Z,13.18
2024-04-30T02:22:45.224Z,13.20
2024-04-30T02:24:47.089Z,13.19
2024-04-30T02:26:48.976Z,13.18
2024-04-30T02:28:51.314Z,13.18
2024-04-30T02:31:02.227Z,13.19
2024-04-30T02:33:13.242Z,13.21
2024-04-30T02:35:15.089Z,13.15
2024-04-30T02:37:16.826Z,13.18
2024-04-30T02:39:18.988Z,13.17
2024-04-30T02:41:20.786Z,13.23
2024-04-30T02:43:22.518Z,13.27
2024-04-30T02:45:24.418Z,13.24
2024-04-30T02:47:26.359Z,13.30
2024-04-30T02:49:28.205Z,13.33
2024-04-30T02:51:30.242Z,13.35
2024-04-30T02:53:32.324Z,13.44
2024-04-30T02:55:34.339Z,13.42
2024-04-30T02:57:36.563Z,13.31
2024-04-30T02:59:39.544Z,13.38
2024-04-30T03:01:41.516Z,13.35
2024-04-30T03:03:44.327Z,13.34
2024-04-30T03:05:46.450Z,13.31
2024-04-30T03:07:48.488Z,13.26
2024-04-30T03:09:50.987Z,13.31
2024-04-30T03:11:53.424Z,13.26
2024-04-30T03:13:55.995Z,13.36
2024-04-30T03:15:58.096Z,13.33
2024-04-30T03:18:03.571Z,13.25
2024-04-30T03:20:06.259Z,13.20
2024-04-30T03:22:08.586Z,13.17
2024-04-30T03:24:10.752Z,13.19
2024-04-30T03:26:12.767Z,13.17
2024-04-30T03:28:14.734Z,13.12
2024-04-30T03:30:16.913Z,13.07
2024-04-30T03:32:19.050Z,13.04
2024-04-30T03:34:22.400Z,13.07
2024-04-30T03:36:24.740Z,13.11
2024-04-30T03:38:27.017Z,13.05
2024-04-30T03:40:28.929Z,13.00
2024-04-30T03:42:31.931Z,12.96
2024-04-30T03:44:35.884Z,13.01
2024-04-30T03:46:37.834Z,12.96
2024-04-30T03:48:40.099Z,13.04
2024-04-30T03:50:42.572Z,12.99
2024-04-30T03:52:44.573Z,13.00
2024-04-30T03:54:46.622Z,13.00
2024-04-30T03:56:49.524Z,12.94
2024-04-30T03:58:51.651Z,12.96
2024-04-30T04:00:53.671Z,13.00
2024-04-30T04:02:56.113Z,12.96
2024-04-30T04:04:58.096Z,12.91
2024-04-30T04:07:00.154Z,12.92
2024-04-30T04:09:02.373Z,12.93
2024-04-30T04:11:14.382Z,12.96
2024-04-30T04:13:26.401Z,12.92
2024-04-30T04:15:28.914Z,12.94
2024-04-30T04:17:31.102Z,13.00
2024-04-30T04:19:34.101Z,12.96
2024-04-30T04:21:36.101Z,12.97
2024-04-30T04:23:38.019Z,12.92
2024-04-30T04:25:39.985Z,12.95
2024-04-30T04:27:41.918Z,12.91
2024-04-30T04:29:44.261Z,12.90
2024-04-30T04:31:47.510Z,12.96
2024-04-30T04:33:49.493Z,12.94
2024-04-30T04:35:51.449Z,12.91
2024-04-30T04:37:54.072Z,12.91
2024-04-30T04:39:56.281Z,12.90
2024-04-30T04:41:58.338Z,12.92
2024-04-30T04:44:00.309Z,12.94
2024-04-30T04:46:02.803Z,12.92
2024-04-30T04:48:05.344Z,12.89
2024-04-30T04:50:08.186Z,12.87
2024-04-30T04:52:13.273Z,12.89
2024-04-30T04:54:15.506Z,12.91
2024-04-30T04:56:17.735Z,12.93
2024-04-30T04:58:20.610Z,12.96
2024-04-30T05:00:25.461Z,12.94
2024-04-30T05:02:27.740Z,12.94
2024-04-30T05:04:29.944Z,12.96
2024-04-30T05:06:35.017Z,12.91
2024-04-30T05:08:37.568Z,12.96
2024-04-30T05:10:39.810Z,12.95
2024-04-30T05:12:42.074Z,12.93
2024-04-30T05:14:44.443Z,12.97
2024-04-30T05:16:46.789Z,12.93
2024-04-30T05:18:49.165Z,12.99
2024-04-30T05:20:51.888Z,12.96
2024-04-30T05:22:56.399Z,12.93
2024-04-30T05:24:58.509Z,12.90
2024-04-30T05:27:01.562Z,12.87
2024-04-30T05:29:03.675Z,12.89
2024-04-30T05:31:08.211Z,12.87
2024-04-30T05:33:11.176Z,12.91
2024-04-30T05:35:14.944Z,12.88
2024-04-30T05:37:17.109Z,12.93
2024-04-30T05:39:20.267Z,12.97
2024-04-30T05:41:22.545Z,12.99
2024-04-30T05:43:24.709Z,13.05
2024-04-30T05:45:27.437Z,13.07
2024-04-30T05:47:33.037Z,13.02
2024-04-30T05:49:35.343Z,12.99
2024-04-30T05:51:37.938Z,13.08
2024-04-30T05:53:40.293Z,13.10
2024-04-30T05:55:42.832Z,13.05
2024-04-30T05:57:45.102Z,13.07
2024-04-30T05:59:50.205Z,13.09
2024-04-30T06:02:02.306Z,13.11
2024-04-30T06:04:08.223Z,13.10
2024-04-30T06:06:11.102Z,13.15
2024-04-30T06:08:15.835Z,13.13
2024-04-30T06:10:21.395Z,13.19
2024-04-30T06:12:24.226Z,13.15
2024-04-30T06:14:29.517Z,13.14
2024-04-30T06:16:35.275Z,13.19
2024-04-30T06:18:38.131Z,13.20
2024-04-30T06:20:40.908Z,13.26
2024-04-30T06:22:43.674Z,13.22
2024-04-30T06:24:46.290Z,13.25
2024-04-30T06:26:50.133Z,13.22
2024-04-30T06:28:55.750Z,13.25
2024-04-30T06:30:58.466Z,13.21
2024-04-30T06:33:01.191Z,13.24
2024-04-30T06:35:06.478Z,13.31
2024-04-30T06:37:09.365Z,13.35
2024-04-30T06:39:13.425Z,13.33
2024-04-30T06:41:16.146Z,13.35
2024-04-30T06:43:18.340Z,13.42
2024-04-30T06:45:26.403Z,13.36
2024-04-30T06:47:29.067Z,13.40
2024-04-30T06:49:34.919Z,13.42
2024-04-30T06:51:46.429Z,13.51
2024-04-30T06:53:49.995Z,13.51
2024-04-30T06:55:54.480Z,13.55
2024-04-30T06:57:58.755Z,13.64
2024-04-30T07:00:02.400Z,13.63
2024-04-30T07:02:12.080Z,13.66
2024-04-30T07:04:19.736Z,13.73
2024-04-30T07:06:33.014Z,13.70
2024-04-30T07:08:46.268Z,13.76
2024-04-30T07:10:48.547Z,13.74
2024-04-30T07:12:59.313Z,13.87
2024-04-30T07:15:05.337Z,13.82
2024-04-30T07:17:09.308Z,13.89
2024-04-30T07:19:17.437Z,13.84
2024-04-30T07:21:20.304Z,13.92
2024-04-30T07:23:22.386Z,13.99
2024-04-30T07:25:42.372Z,13.98
2024-04-30T07:27:45.194Z,14.06
2024-04-30T07:29:47.934Z,14.11
2024-04-30T07:31:56.151Z,14.13
2024-04-30T07:34:06.092Z,14.23
2024-04-30T07:36:11.391Z,14.36
2024-04-30T07:38:18.926Z,14.34
2024-04-30T07:40:24.641Z,14.40
2024-04-30T07:42:32.021Z,14.48
2024-04-30T07:44:45.671Z,14.52
2024-04-30T07:46:48.059Z,14.57
2024-04-30T07:48:57.870Z,14.57
2024-04-30T07:51:01.670Z,14.55
2024-04-30T07:53:05.132Z,14.63
2024-04-30T07:55:12.985Z,14.78
2024-04-30T07:57:29.412Z,14.67
2024-04-30T07:59:31.742Z,14.89
2024-04-30T08:01:43.461Z,14.84
2024-04-30T08:03:52.919Z,14.92
2024-04-30T08:05:56.386Z,14.90
2024-04-30T08:08:01.389Z,14.94
2024-04-30T08:10:21.674Z,14.91
2024-04-30T08:12:24.466Z,14.95
2024-04-30T08:14:33.761Z,15.11
2024-04-30T08:16:40.418Z,15.14
2024-04-30T08:18:43.442Z,15.16
2024-04-30T08:20:45.554Z,15.17
2024-04-30T08:22:48.245Z,15.24
2024-04-30T08:24:57.637Z,15.25
2024-04-30T08:26:59.602Z,15.31
2024-04-30T08:29:05.180Z,15.31
2024-04-30T08:31:22.917Z,15.37
2024-04-30T08:33:25.411Z,15.46
2024-04-30T08:35:44.111Z,15.46
2024-04-30T08:37:54.119Z,15.48
2024-04-30T08:40:07.993Z,15.55
2024-04-30T08:42:10.151Z,15.52
2024-04-30T08:44:14.614Z,15.64
2024-04-30T08:46:23.273Z,15.75
2024-04-30T08:48:46.398Z,15.86
2024-04-30T08:51:07.506Z,15.86
2024-04-30T08:53:16.765Z,15.91
2024-04-30T08:55:58.719Z,15.87
2024-04-30T08:58:00.765Z,16.05
2024-04-30T09:00:03.236Z,15.94
2024-04-30T09:02:05.700Z,15.98
2024-04-30T09:04:09.037Z,15.96
2024-04-30T09:06:11.925Z,15.91
2024-04-30T09:08:18.738Z,16.02
2024-04-30T09:10:20.989Z,16.18
2024-04-30T09:12:23.107Z,16.25
2024-04-30T09:14:25.473Z,16.34
2024-04-30T09:16:27.712Z,16.43
2024-04-30T09:18:30.169Z,16.48
2024-04-30T09:20:32.359Z,16.44
2024-04-30T09:22:44.519Z,16.52
2024-04-30T09:24:47.347Z,16.57
2024-04-30T09:26:52.115Z,16.57
2024-04-30T09:28:56.333Z,16.67
2024-04-30T09:30:59.894Z,16.73
2024-04-30T09:33:10.457Z,16.75
2024-04-30T09:35:22.809Z,16.84
2024-04-30T09:37:25.263Z,16.89
2024-04-30T09:39:29.820Z,16.91
2024-04-30T09:41:32.713Z,16.89
2024-04-30T09:43:35.168Z,16.97
2024-04-30T09:45:37.853Z,17.08
2024-04-30T09:47:40.770Z,17.06
2024-04-30T09:49:43.955Z,16.99
2024-04-30T09:51:47.394Z,17.07
2024-04-30T09:53:49.743Z,17.10
2024-04-30T09:55:53.177Z,17.11
2024-04-30T09:57:56.231Z,17.17
2024-04-30T09:59:58.628Z,17.36
2024-04-30T10:02:04.970Z,17.50
2024-04-30T10:04:08.541Z,17.32
2024-04-30T10:06:15.493Z,17.45
2024-04-30T10:08:19.282Z,17.49
2024-04-30T10:10:38.604Z,17.52
2024-04-30T10:13:06.016Z,17.76
2024-04-30T10:18:12.577Z,18.01
2024-04-30T10:20:27.062Z,18.16
2024-04-30T10:22:38.624Z,18.30
2024-04-30T10:24:41.786Z,18.47
2024-04-30T10:26:46.559Z,18.56
2024-04-30T10:29:02.758Z,18.59
2024-04-30T10:31:10.116Z,18.48
2024-04-30T10:33:15.187Z,18.44
2024-04-30T10:35:18.848Z,18.45
2024-04-30T10:37:27.642Z,18.59
2024-04-30T10:39:30.622Z,18.68
2024-04-30T10:41:33.219Z,18.79
2024-04-30T10:43:35.912Z,18.94
2024-04-30T10:45:38.332Z,18.95
2024-04-30T10:47:40.727Z,19.12
2024-04-30T10:49:51.138Z,19.21
2024-04-30T10:51:55.773Z,19.31
2024-04-30T10:53:59.142Z,19.22
2024-04-30T10:56:01.951Z,19.29
2024-04-30T10:58:14.318Z,19.45
2024-04-30T11:00:17.146Z,19.45
2024-04-30T11:02:19.550Z,19.44
2024-04-30T11:04:28.401Z,19.45
2024-04-30T11:06:40.728Z,19.37
2024-04-30T11:08:42.942Z,19.36
2024-04-30T11:10:47.550Z,19.33
2024-04-30T11:12:56.111Z,19.08
2024-04-30T11:14:59.125Z,19.09
2024-04-30T11:17:02.071Z,18.79
2024-04-30T11:19:04.504Z,19.01
2024-04-30T11:21:07.383Z,18.96
2024-04-30T11:23:09.671Z,19.00
2024-04-30T11:25:11.849Z,19.15
2024-04-30T11:27:14.164Z,19.07
2024-04-30T11:29:30.407Z,18.88
2024-04-30T11:31:37.830Z,18.93
2024-04-30T11:33:40.050Z,19.16
2024-04-30T11:35:42.336Z,19.18
2024-04-30T11:37:44.701Z,19.27
2024-04-30T11:39:47.243Z,19.32
2024-04-30T11:41:57.277Z,19.37
2024-04-30T11:44:08.888Z,19.21
2024-04-30T11:46:12.027Z,19.15
2024-04-30T11:48:14.935Z,19.13
2024-04-30T11:50:17.336Z,19.15
2024-04-30T11:52:21.254Z,19.27
2024-04-30T11:54:31.076Z,19.39
2024-04-30T11:56:34.465Z,19.33
2024-04-30T11:58:38.103Z,19.29
2024-04-30T12:00:40.860Z,19.54
2024-04-30T12:02:44.907Z,19.29
2024-04-30T12:04:47.442Z,19.45
2024-04-30T12:06:49.752Z,19.20
2024-04-30T12:08:53.572Z,19.33
2024-04-30T12:10:56.339Z,19.38
2024-04-30T12:13:01.099Z,19.34
2024-04-30T12:15:04.010Z,19.38
2024-04-30T12:17:07.298Z,19.35
2024-04-30T12:19:10.098Z,19.41
2024-04-30T12:21:12.320Z,19.16
2024-04-30T12:23:16.501Z,19.37
2024-04-30T12:25:18.652Z,19.51
2024-04-30T12:27:21.046Z,19.54
2024-04-30T12:29:23.159Z,19.58
2024-04-30T12:31:25.376Z,19.70
2024-04-30T12:33:28.605Z,19.64
2024-04-30T12:35:31.706Z,19.66
2024-04-30T12:37:33.971Z,19.88
2024-04-30T12:39:37.229Z,19.87
2024-04-30T12:41:39.690Z,19.89
2024-04-30T12:43:50.987Z,19.74
2024-04-30T12:45:55.597Z,19.96
2024-04-30T12:50:36.902Z,20.08
2024-04-30T12:52:39.461Z,20.05
2024-04-30T12:54:43.159Z,20.05
2024-04-30T12:56:47.179Z,20.21
2024-04-30T13:49:10.280Z,20.08
2024-04-30T13:51:14.125Z,20.32
2024-04-30T13:53:16.442Z,20.45
2024-04-30T13:55:19.119Z,20.57
2024-04-30T13:57:21.302Z,20.69
2024-04-30T13:59:23.649Z,20.96
2024-04-30T14:01:25.874Z,21.05
2024-04-30T14:03:28.188Z,21.16
2024-04-30T14:05:30.753Z,21.08
2024-04-30T14:07:33.431Z,21.36
2024-04-30T14:09:35.956Z,21.43
2024-04-30T14:11:38.571Z,21.30
2024-04-30T14:13:41.029Z,21.52
2024-04-30T14:15:43.586Z,21.55
2024-04-30T14:17:46.237Z,21.67
2024-04-30T14:19:49.566Z,21.83
2024-04-30T14:21:52.061Z,22.09
2024-04-30T14:23:54.451Z,22.13
2024-04-30T14:25:58.126Z,22.16
2024-04-30T14:28:01.005Z,22.07
2024-04-30T14:30:03.237Z,21.89
2024-04-30T14:32:07.085Z,21.88
2024-04-30T14:34:09.700Z,22.16
2024-04-30T14:36:25.533Z,22.18
2024-04-30T14:38:27.884Z,22.00
2024-04-30T14:40:30.506Z,22.22
2024-04-30T14:42:33.274Z,22.36
2024-04-30T14:44:35.973Z,22.47
2024-04-30T14:46:38.789Z,22.42
2024-04-30T14:48:44.213Z,22.45
2024-04-30T14:50:46.547Z,22.66
2024-04-30T14:52:49.005Z,22.72
2024-04-30T14:54:52.618Z,22.68
2024-04-30T14:56:55.806Z,22.81
2024-04-30T14:58:58.596Z,22.56
2024-04-30T15:01:01.136Z,22.44
2024-04-30T15:03:03.940Z,22.23
2024-04-30T15:05:06.679Z,22.37
2024-04-30T15:07:09.427Z,22.10
2024-04-30T15:09:11.865Z,22.05
2024-04-30T15:11:22.421Z,22.03
2024-04-30T15:13:25.173Z,22.09
2024-04-30T15:15:28.066Z,22.18
2024-04-30T15:17:32.074Z,22.15
2024-04-30T15:19:34.820Z,22.46
2024-04-30T15:21:37.096Z,22.11
2024-04-30T15:23:43.360Z,22.01
2024-04-30T15:25:45.781Z,21.95
2024-04-30T15:27:49.997Z,21.61
2024-04-30T15:29:52.865Z,21.46
2024-04-30T15:31:55.448Z,20.92
2024-04-30T15:33:58.010Z,20.95
2024-04-30T15:36:00.235Z,20.88
2024-04-30T15:38:02.693Z,20.88
2024-04-30T15:40:05.520Z,20.77
2024-04-30T15:42:08.301Z,20.78
2024-04-30T15:44:11.092Z,20.62
2024-04-30T15:46:13.864Z,20.49
2024-04-30T15:48:17.573Z,20.39
2024-04-30T15:50:19.877Z,20.39
2024-04-30T15:52:22.225Z,20.50
2024-04-30T15:54:24.447Z,20.42
2024-04-30T15:56:26.873Z,20.45
2024-04-30T15:58:29.551Z,20.74
2024-04-30T16:00:32.341Z,20.89
2024-04-30T16:02:34.994Z,21.08
2024-04-30T16:04:38.010Z,21.15
2024-04-30T16:06:41.142Z,21.41
2024-04-30T16:08:43.660Z,21.46
2024-04-30T16:10:45.887Z,21.61
2024-04-30T16:12:48.536Z,21.49
2024-04-30T16:14:51.292Z,21.28
2024-04-30T16:16:53.845Z,21.23
2024-04-30T16:18:56.862Z,21.14
2024-04-30T16:21:00.189Z,20.90
2024-04-30T16:23:02.499Z,20.97
2024-04-30T16:25:05.089Z,20.65
2024-04-30T16:27:07.270Z,20.70
2024-04-30T16:29:09.855Z,20.56
2024-04-30T16:31:12.680Z,20.45
2024-04-30T16:33:16.246Z,20.53
2024-04-30T16:35:20.792Z,20.53
2024-04-30T16:37:23.392Z,20.69
2024-04-30T16:39:26.585Z,20.79
2024-04-30T16:41:29.769Z,20.73
2024-04-30T16:43:32.970Z,20.83
2024-04-30T16:45:35.948Z,20.74
2024-04-30T16:47:39.978Z,20.61
2024-04-30T16:49:57.793Z,20.45
2024-04-30T16:52:02.089Z,20.30
2024-04-30T16:54:05.171Z,20.29
2024-04-30T16:56:08.067Z,20.25
2024-04-30T16:58:12.170Z,20.25
2024-04-30T17:00:17.884Z,20.17
2024-04-30T17:02:20.482Z,20.18
2024-04-30T17:04:24.770Z,20.12
2024-04-30T17:06:28.280Z,20.09
2024-04-30T17:08:31.195Z,20.04
2024-04-30T17:10:34.606Z,20.07
2024-04-30T17:12:37.229Z,20.05
2024-04-30T17:14:40.832Z,20.20
2024-04-30T17:16:45.355Z,20.11
2024-04-30T17:18:49.235Z,20.12
2024-04-30T17:20:54.047Z,20.14
2024-04-30T17:22:56.603Z,20.04
2024-04-30T17:25:03.668Z,20.03
2024-04-30T17:27:06.268Z,20.09
2024-04-30T17:29:10.007Z,19.88
2024-04-30T17:31:16.652Z,19.89
2024-04-30T17:33:23.139Z,19.95
2024-04-30T17:35:25.706Z,19.84
2024-04-30T17:37:30.715Z,19.76
2024-04-30T17:39:33.317Z,19.73
2024-04-30T17:41:36.149Z,19.71
2024-04-30T17:43:40.840Z,19.65
2024-04-30T17:45:46.963Z,19.63
2024-04-30T17:47:54.511Z,19.48
2024-04-30T17:49:57.871Z,19.52
2024-04-30T17:52:00.588Z,19.45
2024-04-30T17:54:03.408Z,19.33
2024-04-30T17:56:06.226Z,19.41
2024-04-30T17:58:08.622Z,19.28
2024-04-30T18:00:11.680Z,19.34
2024-04-30T18:02:14.341Z,19.25
2024-04-30T18:04:18.620Z,19.13
2024-04-30T18:06:21.493Z,19.12
2024-04-30T18:08:23.706Z,19.14
2024-04-30T18:10:36.082Z,18.92
2024-04-30T18:12:43.632Z,18.91
2024-04-30T18:14:46.041Z,18.65
2024-04-30T18:16:48.447Z,18.70
2024-04-30T18:18:52.109Z,18.70
2024-04-30T18:20:54.515Z,18.74
2024-04-30T18:22:56.755Z,18.62
2024-04-30T18:24:58.873Z,18.48
2024-04-30T18:27:00.949Z,18.31
2024-04-30T18:29:03.011Z,18.41
2024-04-30T18:31:09.152Z,18.29
2024-04-30T18:33:11.396Z,18.23
2024-04-30T18:35:13.641Z,18.17
2024-04-30T18:37:17.409Z,18.26
2024-04-30T18:39:19.919Z,18.20
2024-04-30T18:41:28.335Z,18.08
2024-04-30T18:43:33.135Z,18.01
2024-04-30T18:45:35.130Z,18.03
2024-04-30T18:47:37.480Z,17.95
2024-04-30T18:49:43.632Z,17.99
2024-04-30T18:51:45.828Z,17.97
2024-04-30T18:53:48.384Z,17.95
2024-04-30T18:55:50.401Z,17.98
2024-04-30T18:57:52.924Z,17.90
2024-04-30T18:59:55.382Z,17.87
2024-04-30T19:01:58.429Z,17.85
2024-04-30T19:04:00.739Z,17.79
2024-04-30T19:06:10.246Z,17.80
2024-04-30T19:08:12.476Z,17.85
2024-04-30T19:10:14.499Z,17.79
2024-04-30T19:12:16.753Z,17.71
2024-04-30T19:14:18.743Z,17.72
2024-04-30T19:16:20.635Z,17.66
2024-04-30T19:19:00.352Z,17.75
2024-04-30T19:20:52.517Z,17.66
2024-04-30T19:22:55.958Z,17.65
2024-04-30T19:24:58.262Z,17.68
2024-04-30T19:27:00.559Z,17.76
2024-04-30T19:29:02.869Z,17.66
2024-04-30T19:31:05.183Z,17.61
2024-04-30T19:33:10.728Z,17.55
2024-04-30T19:35:12.796Z,17.63
2024-04-30T19:37:14.693Z,17.57
2024-04-30T19:39:16.817Z,17.50
2024-04-30T19:41:19.882Z,17.53
2024-04-30T19:43:21.742Z,17.48
2024-04-30T19:45:23.972Z,17.41
2024-04-30T19:47:26.301Z,17.41
2024-04-30T19:49:29.405Z,17.45
2024-04-30T19:51:31.795Z,17.39
2024-04-30T19:53:33.868Z,17.36
2024-04-30T19:55:35.737Z,17.34
2024-04-30T19:57:37.787Z,17.37
2024-04-30T19:59:41.348Z,17.39
2024-04-30T20:01:44.484Z,17.30
2024-04-30T20:03:46.827Z,17.18
2024-04-30T20:05:48.855Z,17.24
2024-04-30T20:07:50.835Z,17.26
2024-04-30T20:09:52.939Z,17.23
2024-04-30T20:11:54.852Z,17.25
2024-04-30T20:13:56.889Z,17.18
2024-04-30T20:15:58.890Z,17.23
2024-04-30T20:18:01.236Z,17.22
2024-04-30T20:20:14.236Z,17.19
2024-04-30T20:22:16.520Z,17.14
2024-04-30T20:24:22.884Z,17.15
2024-04-30T20:26:29.042Z,17.10
2024-04-30T20:28:34.731Z,17.07
2024-04-30T20:30:36.897Z,16.99
2024-04-30T20:32:39.004Z,17.07
2024-04-30T20:34:41.367Z,17.11
2024-04-30T20:36:44.267Z,16.97
2024-04-30T20:38:46.418Z,16.92
2024-04-30T20:40:48.561Z,16.99
2024-04-30T20:42:50.729Z,16.99
2024-04-30T20:44:52.788Z,17.02
2024-04-30T20:46:54.974Z,17.00
2024-04-30T20:48:57.250Z,16.95
2024-04-30T20:50:59.562Z,16.98
2024-04-30T20:53:02.158Z,17.01
2024-04-30T20:55:06.166Z,17.08
2024-04-30T20:57:08.068Z,17.09
2024-04-30T20:59:10.802Z,17.02
2024-04-30T21:01:17.003Z,17.10
2024-04-30T21:03:19.481Z,17.02
2024-04-30T21:05:21.562Z,17.01
2024-04-30T21:07:24.016Z,17.00
2024-04-30T21:09:25.968Z,16.98
2024-04-30T21:11:27.960Z,17.00
2024-04-30T21:13:30.100Z,16.98
2024-04-30T21:15:32.097Z,16.95
2024-04-30T21:17:35.634Z,16.89
2024-04-30T21:19:37.749Z,16.85
2024-04-30T21:21:40.875Z,16.82
2024-04-30T21:23:43.658Z,16.81
2024-04-30T21:25:45.881Z,16.79
2024-04-30T21:27:48.842Z,16.81
2024-04-30T21:29:51.087Z,16.78
2024-04-30T21:31:53.411Z,16.80
2024-04-30T21:33:55.814Z,16.72
2024-04-30T21:35:58.522Z,16.70
2024-04-30T21:38:00.683Z,16.71
2024-04-30T21:40:02.914Z,16.60
2024-04-30T21:42:05.270Z,16.65
2024-04-30T21:44:08.087Z,16.58
2024-04-30T21:46:10.314Z,16.58
2024-04-30T21:48:12.466Z,16.62
2024-04-30T21:50:14.535Z,16.58
2024-04-30T21:52:16.518Z,16.62
2024-04-30T21:54:18.380Z,16.59
2024-04-30T21:56:20.448Z,16.51
2024-04-30T21:58:23.091Z,16.47
2024-04-30T22:00:25.529Z,16.47
2024-04-30T22:02:27.915Z,16.50
2024-04-30T22:04:30.391Z,16.47
2024-04-30T22:06:32.706Z,16.44
2024-04-30T22:08:34.829Z,16.47
2024-04-30T22:10:37.312Z,16.48
2024-04-30T22:12:39.230Z,16.51
2024-04-30T22:14:41.081Z,16.50
2024-04-30T22:16:43.015Z,16.52
2024-04-30T22:18:45.073Z,16.43
2024-04-30T22:20:47.487Z,16.37
2024-04-30T22:22:49.555Z,16.42
2024-04-30T22:24:51.690Z,16.44
2024-04-30T22:26:53.872Z,16.45
2024-04-30T22:28:56.118Z,16.38
2024-04-30T22:30:58.600Z,16.39
2024-04-30T22:33:04.138Z,16.44
2024-04-30T22:35:06.382Z,16.42
2024-04-30T22:37:08.489Z,16.37
2024-04-30T22:39:11.277Z,16.49
2024-04-30T22:41:13.155Z,16.48
2024-04-30T22:43:14.908Z,16.44
2024-04-30T22:45:16.964Z,16.42
2024-04-30T22:47:19.249Z,16.43
2024-04-30T22:49:21.161Z,16.44
2024-04-30T22:51:28.929Z,16.48
2024-04-30T22:53:40.731Z,16.51
2024-04-30T22:55:49.398Z,16.44
2024-04-30T22:57:51.237Z,16.53
2024-04-30T22:59:53.082Z,16.49
2024-04-30T23:01:55.088Z,16.44
2024-04-30T23:03:57.239Z,16.52
2024-04-30T23:05:59.072Z,16.42
2024-04-30T23:08:00.925Z,16.48
2024-04-30T23:10:02.960Z,16.40
2024-04-30T23:12:05.273Z,16.38
2024-04-30T23:14:07.342Z,16.43
2024-04-30T23:16:09.276Z,16.32
2024-04-30T23:18:12.066Z,16.30
2024-04-30T23:20:14.204Z,16.26
2024-04-30T23:22:16.347Z,16.34
2024-04-30T23:24:18.183Z,16.30
2024-04-30T23:26:20.283Z,16.27
2024-04-30T23:28:22.049Z,16.27
2024-04-30T23:30:24.015Z,16.22
2024-04-30T23:32:25.932Z,16.29
2024-04-30T23:34:27.786Z,16.31
2024-04-30T23:36:29.636Z,16.30
2024-04-30T23:38:31.415Z,16.32
2024-04-30T23:40:33.163Z,16.33
2024-04-30T23:42:38.726Z,16.30
2024-04-30T23:44:40.610Z,16.28
2024-04-30T23:46:42.447Z,16.25
2024-04-30T23:48:44.860Z,16.36
2024-04-30T23:50:46.679Z,16.28
2024-04-30T23:52:48.464Z,16.31
2024-04-30T23:54:50.328Z,16.28
2024-04-30T23:56:52.136Z,16.29
2024-04-30T23:58:54.036Z,16.32
